createdAt,value
2018-03-18T00:01:05.489Z,7.17
2018-03-18T00:03:33.060Z,7.30
2018-03-18T00:06:00.636Z,7.30
2018-03-18T00:08:28.235Z,7.50
2018-03-18T00:10:55.813Z,7.80
2018-03-18T00:13:23.364Z,7.13
2018-03-18T00:15:50.976Z,7.20
2018-03-18T00:18:18.677Z,7.77
2018-03-18T00:20:47.721Z,7.33
2018-03-18T00:23:15.303Z,7.17
2018-03-18T00:25:42.856Z,6.50
2018-03-18T00:28:10.413Z,7.00
2018-03-18T00:30:37.987Z,8.60
2018-03-18T00:33:07.044Z,7.37
2018-03-18T00:35:34.627Z,7.23
2018-03-18T00:38:02.993Z,7.40
2018-03-18T00:40:30.551Z,8.00
2018-03-18T00:42:58.145Z,7.87
2018-03-18T00:45:25.704Z,8.43
2018-03-18T00:47:53.320Z,7.50
2018-03-18T00:50:20.881Z,7.00
2018-03-18T00:52:48.469Z,7.70
2018-03-18T00:55:16.030Z,7.10
2018-03-18T00:57:43.581Z,7.43
2018-03-18T01:00:11.140Z,7.03
2018-03-18T01:02:38.700Z,7.47
2018-03-18T01:05:06.366Z,7.70
2018-03-18T01:07:33.921Z,7.17
2018-03-18T01:10:01.481Z,8.10
2018-03-18T01:12:29.052Z,8.10
2018-03-18T01:14:56.600Z,9.30
2018-03-18T01:17:24.152Z,8.43
2018-03-18T01:19:51.724Z,7.47
2018-03-18T01:22:19.284Z,7.77
2018-03-18T01:24:46.881Z,7.93
2018-03-18T01:27:15.198Z,8.17
2018-03-18T01:29:42.760Z,8.20
2018-03-18T01:32:10.360Z,8.40
2018-03-18T01:34:37.920Z,8.50
2018-03-18T01:37:05.490Z,7.33
2018-03-18T01:39:33.841Z,8.20
2018-03-18T01:42:01.413Z,8.20
2018-03-18T01:44:28.964Z,7.83
2018-03-18T01:46:56.649Z,6.93
2018-03-18T01:49:24.992Z,6.60
2018-03-18T01:51:52.540Z,8.00
2018-03-18T01:54:20.223Z,8.17
2018-03-18T01:56:47.798Z,7.77
2018-03-18T01:59:15.359Z,8.13
2018-03-18T02:01:42.934Z,7.60
2018-03-18T02:04:11.260Z,7.17
2018-03-18T02:06:38.815Z,7.40
2018-03-18T02:09:06.394Z,7.60
2018-03-18T02:11:33.964Z,8.00
2018-03-18T02:14:01.551Z,7.97
2018-03-18T02:16:29.872Z,7.50
2018-03-18T02:18:57.427Z,7.90
2018-03-18T02:21:25.044Z,7.80
2018-03-18T02:23:53.372Z,8.07
2018-03-18T02:26:20.965Z,8.33
2018-03-18T02:28:48.556Z,7.67
2018-03-18T02:31:16.131Z,7.90
2018-03-18T02:33:43.702Z,7.73
2018-03-18T02:36:11.286Z,7.90
2018-03-18T02:38:38.866Z,7.23
2018-03-18T02:41:06.520Z,8.30
2018-03-18T02:43:34.130Z,8.10
2018-03-18T02:46:01.702Z,8.80
2018-03-18T02:48:29.301Z,7.07
2018-03-18T02:50:56.909Z,7.50
2018-03-18T02:53:24.489Z,6.43
2018-03-18T02:55:52.087Z,8.53
2018-03-18T02:58:19.681Z,8.43
2018-03-18T03:00:47.250Z,7.17
2018-03-18T03:03:14.839Z,7.93
2018-03-18T03:05:42.524Z,7.43
2018-03-18T03:08:10.077Z,7.53
2018-03-18T03:10:37.657Z,9.07
2018-03-18T03:13:05.266Z,9.03
2018-03-18T03:15:32.876Z,8.47
2018-03-18T03:18:00.444Z,7.30
2018-03-18T03:20:28.804Z,7.83
2018-03-18T03:22:56.392Z,7.53
2018-03-18T03:25:24.716Z,8.03
2018-03-18T03:27:52.282Z,8.17
2018-03-18T03:30:19.970Z,8.00
2018-03-18T03:32:47.637Z,7.83
2018-03-18T03:35:15.197Z,8.17
2018-03-18T03:37:42.793Z,7.93
2018-03-18T03:40:10.422Z,6.90
2018-03-18T03:42:37.992Z,7.33
2018-03-18T03:45:06.313Z,6.70
2018-03-18T03:47:33.903Z,7.80
2018-03-18T03:50:01.478Z,6.90
2018-03-18T03:52:29.033Z,7.47
2018-03-18T03:54:56.608Z,7.43
2018-03-18T03:57:24.173Z,7.60
2018-03-18T03:59:52.536Z,8.97
2018-03-18T04:02:20.104Z,7.40
2018-03-18T04:04:47.790Z,7.77
2018-03-18T04:07:15.401Z,7.57
2018-03-18T04:09:42.977Z,7.70
2018-03-18T04:12:10.580Z,8.30
2018-03-18T04:14:38.140Z,7.30
2018-03-18T04:17:05.713Z,6.80
2018-03-18T04:19:33.313Z,6.90
2018-03-18T04:22:00.888Z,7.10
2018-03-18T04:24:29.228Z,7.23
2018-03-18T04:26:56.811Z,7.80
2018-03-18T04:29:24.589Z,6.73
2018-03-18T04:31:52.197Z,7.20
2018-03-18T04:34:19.768Z,7.00
2018-03-18T04:36:47.319Z,7.13
2018-03-18T04:39:14.880Z,7.90
2018-03-18T04:41:42.432Z,7.23
2018-03-18T04:44:10.010Z,7.30
2018-03-18T04:46:37.588Z,6.43
2018-03-18T04:49:05.138Z,6.50
2018-03-18T04:51:32.709Z,6.87
2018-03-18T04:54:00.281Z,6.30
2018-03-18T04:56:27.844Z,6.10
2018-03-18T04:58:55.392Z,6.80
2018-03-18T05:01:22.964Z,7.30
2018-03-18T05:03:50.546Z,7.10
2018-03-18T05:06:18.884Z,7.07
2018-03-18T05:08:46.443Z,6.90
2018-03-18T05:11:14.013Z,6.77
2018-03-18T05:13:41.572Z,6.93
2018-03-18T05:16:09.129Z,6.60
2018-03-18T05:18:36.701Z,8.27
2018-03-18T05:21:04.272Z,6.50
2018-03-18T05:23:32.629Z,7.00
2018-03-18T05:26:00.184Z,5.60
2018-03-18T05:28:27.740Z,6.73
2018-03-18T05:30:55.316Z,5.93
2018-03-18T05:33:22.872Z,6.90
2018-03-18T05:35:50.420Z,6.63
2018-03-18T05:38:17.984Z,6.57
2018-03-18T05:40:46.326Z,6.10
2018-03-18T05:43:13.904Z,6.77
2018-03-18T05:45:41.461Z,6.60
2018-03-18T05:48:09.035Z,6.13
2018-03-18T05:50:36.616Z,6.10
2018-03-18T05:53:04.176Z,6.53
2018-03-18T05:55:31.750Z,5.50
2018-03-18T05:58:00.075Z,6.53
2018-03-18T06:00:27.636Z,7.03
2018-03-18T06:02:55.200Z,5.73
2018-03-18T06:05:22.769Z,5.40
2018-03-18T06:07:50.336Z,6.10
2018-03-18T06:10:17.887Z,6.63
2018-03-18T06:12:45.473Z,6.17
2018-03-18T06:15:13.038Z,6.23
2018-03-18T06:17:40.597Z,6.17
2018-03-18T06:20:08.188Z,5.90
2018-03-18T06:22:35.740Z,6.33
2018-03-18T06:25:04.068Z,7.07
2018-03-18T06:27:31.654Z,5.57
2018-03-18T06:29:59.984Z,5.10
2018-03-18T06:32:27.544Z,5.60
2018-03-18T06:34:55.112Z,5.73
2018-03-18T06:37:22.659Z,6.03
2018-03-18T06:39:50.241Z,5.53
2018-03-18T06:42:18.564Z,6.70
2018-03-18T06:44:46.880Z,5.23
2018-03-18T06:47:14.457Z,5.57
2018-03-18T06:49:42.036Z,7.00
2018-03-18T06:52:09.612Z,6.20
2018-03-18T06:54:37.165Z,5.20
2018-03-18T06:57:04.733Z,5.73
2018-03-18T06:59:33.072Z,5.73
2018-03-18T07:02:00.613Z,6.00
2018-03-18T07:04:28.163Z,4.70
2018-03-18T07:06:55.834Z,5.40
2018-03-18T07:09:23.389Z,5.70
2018-03-18T07:11:50.949Z,5.57
2018-03-18T07:14:18.563Z,5.30
2018-03-18T07:16:46.101Z,5.13
2018-03-18T07:19:13.660Z,5.33
2018-03-18T07:21:41.227Z,4.87
2018-03-18T07:26:43.412Z,5.03
2018-03-18T07:29:10.973Z,4.87
2018-03-18T07:31:38.521Z,5.40
2018-03-18T07:34:06.121Z,5.20
2018-03-18T07:36:34.466Z,5.10
2018-03-18T07:39:02.039Z,5.60
2018-03-18T07:41:29.632Z,5.20
2018-03-18T07:43:57.192Z,5.80
2018-03-18T07:46:25.531Z,5.80
2018-03-18T07:48:53.107Z,5.00
2018-03-18T07:51:20.696Z,4.80
2018-03-18T07:53:48.245Z,5.50
2018-03-18T07:56:15.821Z,4.60
2018-03-18T07:58:43.394Z,4.57
2018-03-18T08:01:11.712Z,5.10
2018-03-18T08:03:39.266Z,4.90
2018-03-18T08:06:06.852Z,4.50
2018-03-18T08:08:34.404Z,5.60
2018-03-18T08:11:01.953Z,4.77
2018-03-18T08:13:29.539Z,4.87
2018-03-18T08:15:57.100Z,5.10
2018-03-18T08:18:24.661Z,5.93
2018-03-18T08:20:52.311Z,4.90
2018-03-18T08:23:19.870Z,5.20
2018-03-18T08:25:47.415Z,4.17
2018-03-18T08:28:14.994Z,4.10
2018-03-18T08:30:42.544Z,4.47
2018-03-18T08:33:10.093Z,5.00
2018-03-18T08:35:37.680Z,4.10
2018-03-18T08:38:05.241Z,4.50
2018-03-18T08:40:32.789Z,3.90
2018-03-18T08:43:00.360Z,4.10
2018-03-18T08:45:27.916Z,4.80
2018-03-18T08:47:55.460Z,4.73
2018-03-18T08:50:23.037Z,5.43
2018-03-18T08:52:50.581Z,4.37
2018-03-18T08:55:18.125Z,4.93
2018-03-18T08:57:45.721Z,4.80
2018-03-18T09:00:13.318Z,4.77
2018-03-18T09:02:40.913Z,3.90
2018-03-18T09:05:08.472Z,4.43
2018-03-18T09:07:36.016Z,5.30
2018-03-18T09:10:03.585Z,4.60
2018-03-18T09:12:31.140Z,4.50
2018-03-18T09:14:58.696Z,5.67
2018-03-18T09:17:26.292Z,4.40
2018-03-18T09:19:53.837Z,4.93
2018-03-18T09:22:21.394Z,4.50
2018-03-18T09:24:48.970Z,5.00
2018-03-18T09:27:16.524Z,4.53
2018-03-18T09:29:44.068Z,4.93
2018-03-18T09:32:11.625Z,5.13
2018-03-18T09:34:39.208Z,5.50
2018-03-18T09:37:06.842Z,4.90
2018-03-18T09:39:34.401Z,5.00
2018-03-18T09:42:01.976Z,4.23
2018-03-18T09:44:29.553Z,5.00
2018-03-18T09:46:57.145Z,5.20
2018-03-18T09:49:25.493Z,5.20
2018-03-18T09:51:53.068Z,5.53
2018-03-18T09:54:20.659Z,5.53
2018-03-18T09:56:48.236Z,6.37
2018-03-18T09:59:15.808Z,5.37
2018-03-18T10:01:43.376Z,5.00
2018-03-18T10:04:10.952Z,5.27
2018-03-18T10:06:38.549Z,4.70
2018-03-18T10:09:06.104Z,4.77
2018-03-18T10:11:34.464Z,4.50
2018-03-18T10:14:02.087Z,3.97
2018-03-18T10:16:29.644Z,5.13
2018-03-18T10:18:57.213Z,5.77
2018-03-18T10:21:24.793Z,7.00
2018-03-18T10:23:52.344Z,5.10
2018-03-18T10:26:19.884Z,4.87
2018-03-18T10:28:47.471Z,4.20
2018-03-18T10:31:15.122Z,4.10
2018-03-18T10:33:42.669Z,5.33
2018-03-18T10:36:10.233Z,4.67
2018-03-18T10:38:37.777Z,4.80
2018-03-18T10:41:05.359Z,5.17
2018-03-18T10:43:32.908Z,5.83
2018-03-18T10:46:00.469Z,4.33
2018-03-18T10:48:28.028Z,5.60
2018-03-18T10:50:55.569Z,4.30
2018-03-18T10:53:23.901Z,4.20
2018-03-18T10:55:51.456Z,4.27
2018-03-18T10:58:19.035Z,5.80
2018-03-18T11:00:54.315Z,4.97
2018-03-18T11:03:23.674Z,4.97
2018-03-18T11:05:51.220Z,4.90
2018-03-18T11:08:18.769Z,5.20
2018-03-18T11:10:46.337Z,5.17
2018-03-18T11:13:13.885Z,5.53
2018-03-18T11:15:42.320Z,4.73
2018-03-18T11:18:09.872Z,5.10
2018-03-18T11:20:37.427Z,5.17
2018-03-18T11:23:05.019Z,4.90
2018-03-18T11:25:33.336Z,4.70
2018-03-18T11:28:00.909Z,5.07
2018-03-18T11:30:28.489Z,5.23
2018-03-18T11:32:56.049Z,4.63
2018-03-18T11:35:23.615Z,5.30
2018-03-18T11:37:51.192Z,4.07
2018-03-18T11:40:19.520Z,4.33
2018-03-18T11:42:47.068Z,4.33
2018-03-18T11:45:14.629Z,5.30
2018-03-18T11:47:42.184Z,4.43
2018-03-18T11:50:09.752Z,5.33
2018-03-18T11:52:37.411Z,4.80
2018-03-18T11:55:04.956Z,3.90
2018-03-18T11:57:32.530Z,4.73
2018-03-18T12:00:00.079Z,3.70
2018-03-18T12:02:27.627Z,3.90
2018-03-18T12:04:55.446Z,4.60
2018-03-18T12:07:22.998Z,4.30
2018-03-18T12:09:50.560Z,3.70
2018-03-18T12:12:19.833Z,4.33
2018-03-18T12:14:47.383Z,3.77
2018-03-18T12:17:15.094Z,5.10
2018-03-18T12:19:42.665Z,4.63
2018-03-18T12:22:11.000Z,4.47
2018-03-18T12:24:38.553Z,5.30
2018-03-18T12:27:06.113Z,4.80
2018-03-18T12:29:33.683Z,3.93
2018-03-18T12:32:01.229Z,5.27
2018-03-18T12:34:28.777Z,3.97
2018-03-18T12:36:56.465Z,4.00
2018-03-18T12:39:24.013Z,4.57
2018-03-18T12:41:51.560Z,3.77
2018-03-18T12:44:19.145Z,4.17
2018-03-18T12:46:46.693Z,4.23
2018-03-18T12:49:14.248Z,4.30
2018-03-18T12:51:41.827Z,4.10
2018-03-18T12:54:09.384Z,3.97
2018-03-18T12:56:36.958Z,3.60
2018-03-18T12:59:04.507Z,4.33
2018-03-18T13:01:32.052Z,4.33
2018-03-18T13:03:59.625Z,4.00
2018-03-18T13:06:27.186Z,3.80
2018-03-18T13:08:54.745Z,3.70
2018-03-18T13:11:22.315Z,3.53
2018-03-18T13:13:49.912Z,4.10
2018-03-18T13:16:17.439Z,3.90
2018-03-18T13:18:45.001Z,3.90
2018-03-18T13:21:12.593Z,4.20
2018-03-18T13:23:40.181Z,4.47
2018-03-18T13:26:07.728Z,4.13
2018-03-18T13:28:36.057Z,3.80
2018-03-18T13:31:03.640Z,4.10
2018-03-18T13:33:31.190Z,4.80
2018-03-18T13:35:58.732Z,4.20
2018-03-18T13:38:26.332Z,3.83
2018-03-18T13:40:54.647Z,4.20
2018-03-18T13:43:22.198Z,4.20
2018-03-18T13:45:49.776Z,4.20
2018-03-18T13:48:17.318Z,3.50
2018-03-18T13:50:44.872Z,3.70
2018-03-18T13:53:12.438Z,3.70
2018-03-18T13:55:40.002Z,3.80
2018-03-18T13:58:07.568Z,3.90
2018-03-18T14:00:35.119Z,3.90
2018-03-18T14:03:02.681Z,4.30
2018-03-18T14:05:30.228Z,4.23
2018-03-18T14:07:57.792Z,4.00
2018-03-18T14:10:25.373Z,3.70
2018-03-18T14:12:52.937Z,3.50
2018-03-18T14:15:20.486Z,3.73
2018-03-18T14:17:48.076Z,4.23
2018-03-18T14:20:15.653Z,3.40
2018-03-18T14:22:43.213Z,3.97
2018-03-18T14:25:10.791Z,4.20
2018-03-18T14:27:39.114Z,3.43
2018-03-18T14:30:06.673Z,3.90
2018-03-18T14:32:34.233Z,3.90
2018-03-18T14:35:01.784Z,4.30
2018-03-18T14:37:29.358Z,3.97
2018-03-18T14:39:56.906Z,3.70
2018-03-18T14:42:24.456Z,4.20
2018-03-18T14:44:52.030Z,3.57
2018-03-18T14:47:19.604Z,4.20
2018-03-18T14:49:47.151Z,3.63
2018-03-18T14:52:14.710Z,4.13
2018-03-18T14:54:42.281Z,4.20
2018-03-18T14:57:09.842Z,3.77
2018-03-18T14:59:37.419Z,4.03
2018-03-18T15:02:04.989Z,4.20
2018-03-18T15:04:32.537Z,3.70
2018-03-18T15:07:00.084Z,4.43
2018-03-18T15:09:27.657Z,3.47
2018-03-18T15:11:55.207Z,3.47
2018-03-18T15:14:22.791Z,3.40
2018-03-18T15:16:50.346Z,4.07
2018-03-18T15:19:17.902Z,4.47
2018-03-18T15:21:45.468Z,5.13
2018-03-18T15:24:13.824Z,4.37
2018-03-18T15:26:41.398Z,4.60
2018-03-18T15:29:08.944Z,4.40
2018-03-18T15:31:36.519Z,4.10
2018-03-18T15:34:04.064Z,3.83
2018-03-18T15:36:31.613Z,4.60
2018-03-18T15:38:59.176Z,4.50
2018-03-18T15:41:26.732Z,4.40
2018-03-18T15:43:54.281Z,3.77
2018-03-18T15:46:21.852Z,4.47
2018-03-18T15:48:49.417Z,4.23
2018-03-18T15:51:16.977Z,3.83
2018-03-18T15:53:44.542Z,4.50
2018-03-18T15:56:12.090Z,3.93
2018-03-18T15:58:39.673Z,4.27
2018-03-18T16:01:07.224Z,4.00
2018-03-18T16:03:34.835Z,3.77
2018-03-18T16:06:02.522Z,4.27
2018-03-18T16:08:30.101Z,3.63
2018-03-18T16:10:57.749Z,3.67
2018-03-18T16:13:25.315Z,5.03
2018-03-18T16:15:52.873Z,3.30
2018-03-18T16:18:20.510Z,3.70
2018-03-18T16:20:48.025Z,3.87
2018-03-18T16:23:15.585Z,4.47
2018-03-18T16:25:43.170Z,3.73
2018-03-18T16:28:10.741Z,3.03
2018-03-18T16:30:50.068Z,4.37
2018-03-18T16:33:18.587Z,4.80
2018-03-18T16:35:46.191Z,4.03
2018-03-18T16:38:14.524Z,4.10
2018-03-18T16:40:42.104Z,3.70
2018-03-18T16:43:09.653Z,3.73
2018-03-18T16:45:37.207Z,4.10
2018-03-18T16:48:04.769Z,4.30
2018-03-18T16:50:32.338Z,3.87
2018-03-18T16:52:59.897Z,4.07
2018-03-18T16:55:27.446Z,3.40
2018-03-18T16:57:55.001Z,3.80
2018-03-18T17:00:22.550Z,4.60
2018-03-18T17:02:50.128Z,4.27
2018-03-18T17:05:17.667Z,4.20
2018-03-18T17:07:45.212Z,4.67
2018-03-18T17:10:12.772Z,3.63
2018-03-18T17:12:40.378Z,4.73
2018-03-18T17:15:07.944Z,3.80
2018-03-18T17:17:35.523Z,4.07
2018-03-18T17:20:03.870Z,4.03
2018-03-18T17:22:31.465Z,3.37
2018-03-18T17:24:59.800Z,5.70
2018-03-18T17:27:27.389Z,4.87
2018-03-18T17:29:54.964Z,4.97
2018-03-18T17:32:23.364Z,4.30
2018-03-18T17:34:50.961Z,4.60
2018-03-18T17:37:19.320Z,4.40
2018-03-18T17:39:46.890Z,4.77
2018-03-18T17:42:14.469Z,4.87
2018-03-18T17:44:53.884Z,4.90
2018-03-18T17:47:33.306Z,5.00
2018-03-18T17:50:12.813Z,4.13
2018-03-18T17:52:52.103Z,5.20
2018-03-18T17:55:31.052Z,4.27
2018-03-18T17:57:58.639Z,3.60
2018-03-18T18:00:26.980Z,5.07
2018-03-18T18:02:54.575Z,4.63
2018-03-18T18:05:22.959Z,3.70
2018-03-18T18:07:50.589Z,4.67
2018-03-18T18:10:18.949Z,4.60
2018-03-18T18:12:46.544Z,5.30
2018-03-18T18:15:14.140Z,5.10
2018-03-18T18:17:41.710Z,4.70
2018-03-18T18:20:09.311Z,4.60
2018-03-18T18:22:36.881Z,4.93
2018-03-18T18:25:04.544Z,4.90
2018-03-18T18:27:32.122Z,4.33
2018-03-18T18:29:59.728Z,4.20
2018-03-18T18:32:27.424Z,5.03
2018-03-18T18:34:55.081Z,4.37
2018-03-18T18:37:22.685Z,4.90
2018-03-18T18:39:51.197Z,4.97
2018-03-18T18:42:18.840Z,4.27
2018-03-18T18:44:47.241Z,3.80
2018-03-18T18:47:14.965Z,4.63
2018-03-18T18:49:43.378Z,5.33
2018-03-18T18:52:11.040Z,4.50
2018-03-18T18:54:38.690Z,5.00
2018-03-18T18:57:06.363Z,5.43
2018-03-18T18:59:33.974Z,5.33
2018-03-18T19:02:01.615Z,4.67
2018-03-18T19:04:29.251Z,4.53
2018-03-18T19:06:56.904Z,4.90
2018-03-18T19:09:24.527Z,4.93
2018-03-18T19:11:52.130Z,4.87
2018-03-18T19:14:19.794Z,5.83
2018-03-18T19:16:47.433Z,4.03
2018-03-18T19:19:15.077Z,4.60
2018-03-18T19:21:42.767Z,4.43
2018-03-18T19:24:11.437Z,5.40
2018-03-18T19:26:39.125Z,4.73
2018-03-18T19:29:06.890Z,4.93
2018-03-18T19:31:34.638Z,4.70
2018-03-18T19:34:02.472Z,5.07
2018-03-18T19:36:30.146Z,5.63
2018-03-18T19:38:57.828Z,4.63
2018-03-18T19:41:26.330Z,5.37
2018-03-18T19:43:54.039Z,5.33
2018-03-18T19:46:21.646Z,5.00
2018-03-18T19:48:49.308Z,5.20
2018-03-18T19:51:17.041Z,4.60
2018-03-18T19:53:45.637Z,4.23
2018-03-18T19:56:14.043Z,5.30
2018-03-18T19:58:41.778Z,5.13
2018-03-18T20:01:10.149Z,6.40
2018-03-18T20:03:38.620Z,6.20
2018-03-18T20:06:06.269Z,5.20
2018-03-18T20:08:33.830Z,5.60
2018-03-18T20:11:01.656Z,5.70
2018-03-18T20:13:29.336Z,4.87
2018-03-18T20:15:56.988Z,4.80
2018-03-18T20:18:24.628Z,4.80
2018-03-18T20:20:53.058Z,5.60
2018-03-18T20:23:20.700Z,5.00
2018-03-18T20:25:49.561Z,4.67
2018-03-18T20:28:18.185Z,4.53
2018-03-18T20:30:49.133Z,4.27
2018-03-18T20:35:51.806Z,4.40
2018-03-18T20:38:19.849Z,5.50
2018-03-18T20:40:48.548Z,4.33
2018-03-18T20:43:16.348Z,4.57
2018-03-18T20:45:43.962Z,4.70
2018-03-18T20:48:11.828Z,4.90
2018-03-18T20:53:14.924Z,4.30
2018-03-18T20:55:42.874Z,5.10
2018-03-18T20:58:10.768Z,4.67
2018-03-18T21:00:38.548Z,4.90
2018-03-18T21:03:06.231Z,4.67
2018-03-18T21:05:33.953Z,4.60
2018-03-18T21:08:01.775Z,5.50
2018-03-18T21:10:29.508Z,4.27
2018-03-18T21:12:57.267Z,4.00
2018-03-18T21:15:25.731Z,5.17
2018-03-18T21:17:53.514Z,4.70
2018-03-18T21:20:22.711Z,5.20
2018-03-18T21:22:52.095Z,4.57
2018-03-18T21:25:20.590Z,4.23
2018-03-18T21:27:48.237Z,5.93
2018-03-18T21:30:16.735Z,4.57
2018-03-18T21:32:45.223Z,4.80
2018-03-18T21:35:12.876Z,5.17
2018-03-18T21:37:40.568Z,4.50
2018-03-18T21:40:09.605Z,4.90
2018-03-18T21:42:37.385Z,5.30
2018-03-18T21:45:09.157Z,4.70
2018-03-18T21:47:36.827Z,4.80
2018-03-18T21:50:04.785Z,5.17
2018-03-18T21:52:33.303Z,5.30
2018-03-18T21:55:02.465Z,5.77
2018-03-18T21:57:30.829Z,4.57
2018-03-18T21:59:58.925Z,5.10
2018-03-18T22:02:26.862Z,5.10
2018-03-18T22:04:54.557Z,4.80
2018-03-18T22:07:22.307Z,4.70
2018-03-18T22:09:51.005Z,5.03
2018-03-18T22:12:19.479Z,5.10
2018-03-18T22:14:48.455Z,4.67
2018-03-18T22:17:16.224Z,4.87
2018-03-18T22:19:51.815Z,5.23
2018-03-18T22:22:19.449Z,5.03
2018-03-18T22:24:47.886Z,4.53
2018-03-18T22:27:19.105Z,4.87
2018-03-18T22:29:54.668Z,5.23
2018-03-18T22:32:22.507Z,5.13
2018-03-18T22:34:50.438Z,4.63
2018-03-18T22:37:18.189Z,5.20
2018-03-18T22:39:46.826Z,4.90
2018-03-18T22:42:15.783Z,5.33
2018-03-18T22:44:45.382Z,5.20
2018-03-18T22:47:14.076Z,5.27
2018-03-18T22:49:41.821Z,6.53
2018-03-18T22:52:09.450Z,6.47
2018-03-18T22:54:37.618Z,6.80
2018-03-18T22:57:06.351Z,4.50
2018-03-18T22:59:34.199Z,5.07
2018-03-18T23:02:05.785Z,5.37
2018-03-18T23:04:34.537Z,5.63
2018-03-18T23:07:05.937Z,5.43
2018-03-18T23:09:41.872Z,4.60
2018-03-18T23:12:10.433Z,4.90
2018-03-18T23:14:38.093Z,4.70
2018-03-18T23:17:09.049Z,4.97
2018-03-18T23:19:42.085Z,5.00
2018-03-18T23:22:09.754Z,4.77
2018-03-18T23:24:37.517Z,4.70
2018-03-18T23:27:32.681Z,5.60
2018-03-18T23:33:10.245Z,5.00
2018-03-18T23:44:25.952Z,5.43
2018-03-18T23:46:53.547Z,4.83
2018-03-18T23:49:21.884Z,5.30
2018-03-18T23:51:49.558Z,5.40
2018-03-18T23:54:17.932Z,5.33
2018-03-18T23:56:46.273Z,5.53
2018-03-18T23:59:13.868Z,5.20
